Alameda, New Mexico
Current Conditions -  °F | °C
As of 2:50 PM on Wednesday 22 Oct 2014 (Local Time) from KAEG Reporting Station
Broken Clouds Broken Clouds  
Wind Chill: 70°   Ceiling: 15000
Heat Index: 70°   Visibility: 10mi
Dew Point: 37°   Wind: 6mph
Humidity: 31%   Direction: 210°SSW
Pressure: 30.17"   Gusts: NA
Location:  35.1991°N, 106.662°W
Report Text: KAEG 222050Z 21005KT 10SM SCT070 BKN150 21/03 A3017
Loading
Personal Weather Stations






























Interactive Weather Map
Tropical Storm Tracking
New forecast layout! Learn more

10-Day Weather Forecast

Advertisements
Track Severe Weather on mobile